sensor_id;sensor_type;location;lat;lon;timestamp;P1;durP1;ratioP1;P2;durP2;ratioP2
3006;SDS011;1513;47.650;10.720;2023-06-19T00:01:26;18.20;;;12.90;;
3006;SDS011;1513;47.650;10.720;2023-06-19T00:03:53;16.53;;;13.33;;
3006;SDS011;1513;47.650;10.720;2023-06-19T00:06:19;16.60;;;12.60;;
3006;SDS011;1513;47.650;10.720;2023-06-19T00:08:45;14.90;;;12.50;;
3006;SDS011;1513;47.650;10.720;2023-06-19T00:11:12;16.83;;;13.87;;
3006;SDS011;1513;47.650;10.720;2023-06-19T00:13:38;17.57;;;12.67;;
3006;SDS011;1513;47.650;10.720;2023-06-19T00:16:04;16.97;;;12.93;;
3006;SDS011;1513;47.650;10.720;2023-06-19T00:18:31;15.73;;;13.07;;
3006;SDS011;1513;47.650;10.720;2023-06-19T00:21:05;17.00;;;13.70;;
3006;SDS011;1513;47.650;10.720;2023-06-19T00:23:33;18.57;;;13.40;;
3006;SDS011;1513;47.650;10.720;2023-06-19T00:26:00;16.80;;;13.83;;
3006;SDS011;1513;47.650;10.720;2023-06-19T00:28:27;15.53;;;12.23;;
3006;SDS011;1513;47.650;10.720;2023-06-19T00:30:54;16.17;;;13.20;;
3006;SDS011;1513;47.650;10.720;2023-06-19T00:33:20;19.57;;;13.50;;
3006;SDS011;1513;47.650;10.720;2023-06-19T00:35:47;16.70;;;12.17;;
3006;SDS011;1513;47.650;10.720;2023-06-19T00:38:16;19.70;;;15.77;;
3006;SDS011;1513;47.650;10.720;2023-06-19T00:40:43;24.90;;;16.53;;
3006;SDS011;1513;47.650;10.720;2023-06-19T00:43:09;24.00;;;15.60;;
3006;SDS011;1513;47.650;10.720;2023-06-19T00:45:36;20.43;;;15.40;;
3006;SDS011;1513;47.650;10.720;2023-06-19T00:48:02;19.83;;;14.97;;
3006;SDS011;1513;47.650;10.720;2023-06-19T00:50:30;20.20;;;12.73;;
3006;SDS011;1513;47.650;10.720;2023-06-19T00:52:57;19.77;;;14.00;;
3006;SDS011;1513;47.650;10.720;2023-06-19T00:55:26;17.40;;;13.70;;
3006;SDS011;1513;47.650;10.720;2023-06-19T00:57:55;19.50;;;13.50;;
3006;SDS011;1513;47.650;10.720;2023-06-19T01:00:21;17.23;;;14.10;;
3006;SDS011;1513;47.650;10.720;2023-06-19T01:02:47;18.10;;;14.50;;
3006;SDS011;1513;47.650;10.720;2023-06-19T01:05:14;19.20;;;14.93;;
3006;SDS011;1513;47.650;10.720;2023-06-19T01:10:12;17.90;;;14.27;;
3006;SDS011;1513;47.650;10.720;2023-06-19T01:12:44;17.93;;;13.70;;
3006;SDS011;1513;47.650;10.720;2023-06-19T01:15:18;16.60;;;13.47;;
3006;SDS011;1513;47.650;10.720;2023-06-19T01:17:46;18.67;;;12.50;;
3006;SDS011;1513;47.650;10.720;2023-06-19T01:20:13;17.23;;;13.53;;
3006;SDS011;1513;47.650;10.720;2023-06-19T01:22:39;16.30;;;12.87;;
3006;SDS011;1513;47.650;10.720;2023-06-19T01:25:09;18.17;;;13.90;;
3006;SDS011;1513;47.650;10.720;2023-06-19T01:27:39;16.20;;;12.07;;
3006;SDS011;1513;47.650;10.720;2023-06-19T01:30:06;18.03;;;13.00;;
3006;SDS011;1513;47.650;10.720;2023-06-19T01:35:38;18.30;;;12.60;;
3006;SDS011;1513;47.650;10.720;2023-06-19T01:38:05;14.70;;;12.47;;
3006;SDS011;1513;47.650;10.720;2023-06-19T01:40:32;15.43;;;12.70;;
3006;SDS011;1513;47.650;10.720;2023-06-19T01:43:00;14.83;;;12.30;;
3006;SDS011;1513;47.650;10.720;2023-06-19T01:45:28;16.23;;;12.20;;
3006;SDS011;1513;47.650;10.720;2023-06-19T01:47:55;15.10;;;12.30;;
3006;SDS011;1513;47.650;10.720;2023-06-19T01:50:22;16.70;;;13.00;;
3006;SDS011;1513;47.650;10.720;2023-06-19T01:52:50;15.73;;;12.73;;
3006;SDS011;1513;47.650;10.720;2023-06-19T01:55:17;17.47;;;12.90;;
3006;SDS011;1513;47.650;10.720;2023-06-19T01:57:43;17.10;;;13.50;;
3006;SDS011;1513;47.650;10.720;2023-06-19T02:00:11;17.87;;;14.30;;
3006;SDS011;1513;47.650;10.720;2023-06-19T02:02:41;17.00;;;12.80;;
3006;SDS011;1513;47.650;10.720;2023-06-19T02:05:07;15.53;;;12.80;;
3006;SDS011;1513;47.650;10.720;2023-06-19T02:07:34;15.27;;;12.70;;
3006;SDS011;1513;47.650;10.720;2023-06-19T02:10:01;13.30;;;11.90;;
3006;SDS011;1513;47.650;10.720;2023-06-19T02:12:27;14.07;;;12.20;;
3006;SDS011;1513;47.650;10.720;2023-06-19T02:14:54;16.53;;;12.60;;
3006;SDS011;1513;47.650;10.720;2023-06-19T02:17:20;15.33;;;12.10;;
3006;SDS011;1513;47.650;10.720;2023-06-19T02:19:47;14.90;;;12.13;;
3006;SDS011;1513;47.650;10.720;2023-06-19T02:22:13;14.00;;;11.90;;
3006;SDS011;1513;47.650;10.720;2023-06-19T02:24:39;16.17;;;13.27;;
3006;SDS011;1513;47.650;10.720;2023-06-19T02:27:06;14.70;;;11.50;;
3006;SDS011;1513;47.650;10.720;2023-06-19T02:29:32;13.90;;;11.33;;
3006;SDS011;1513;47.650;10.720;2023-06-19T02:32:02;14.17;;;10.07;;
3006;SDS011;1513;47.650;10.720;2023-06-19T02:34:28;13.20;;;10.40;;
3006;SDS011;1513;47.650;10.720;2023-06-19T02:36:55;14.13;;;10.77;;
3006;SDS011;1513;47.650;10.720;2023-06-19T02:39:21;13.43;;;10.60;;
3006;SDS011;1513;47.650;10.720;2023-06-19T02:41:48;15.50;;;10.83;;
3006;SDS011;1513;47.650;10.720;2023-06-19T02:44:14;18.10;;;10.83;;
3006;SDS011;1513;47.650;10.720;2023-06-19T02:46:42;14.53;;;10.10;;
3006;SDS011;1513;47.650;10.720;2023-06-19T02:49:09;10.57;;;9.00;;
3006;SDS011;1513;47.650;10.720;2023-06-19T02:51:36;16.87;;;10.83;;
3006;SDS011;1513;47.650;10.720;2023-06-19T02:54:03;12.20;;;9.93;;
3006;SDS011;1513;47.650;10.720;2023-06-19T02:56:29;11.67;;;9.80;;
3006;SDS011;1513;47.650;10.720;2023-06-19T02:58:56;12.63;;;10.00;;
3006;SDS011;1513;47.650;10.720;2023-06-19T03:01:22;12.23;;;9.83;;
3006;SDS011;1513;47.650;10.720;2023-06-19T03:03:48;11.47;;;10.23;;
3006;SDS011;1513;47.650;10.720;2023-06-19T03:06:14;11.50;;;9.40;;
3006;SDS011;1513;47.650;10.720;2023-06-19T03:08:43;13.93;;;9.33;;
3006;SDS011;1513;47.650;10.720;2023-06-19T03:11:11;10.90;;;9.10;;
3006;SDS011;1513;47.650;10.720;2023-06-19T03:13:48;12.50;;;10.10;;
3006;SDS011;1513;47.650;10.720;2023-06-19T03:16:19;13.27;;;9.07;;
3006;SDS011;1513;47.650;10.720;2023-06-19T03:18:46;23.60;;;10.17;;
3006;SDS011;1513;47.650;10.720;2023-06-19T03:21:15;11.97;;;9.63;;
3006;SDS011;1513;47.650;10.720;2023-06-19T03:23:45;18.67;;;10.80;;
3006;SDS011;1513;47.650;10.720;2023-06-19T03:26:12;12.70;;;9.50;;
3006;SDS011;1513;47.650;10.720;2023-06-19T03:28:40;11.60;;;9.40;;
3006;SDS011;1513;47.650;10.720;2023-06-19T03:31:08;11.73;;;9.03;;
3006;SDS011;1513;47.650;10.720;2023-06-19T03:33:35;11.80;;;9.87;;
3006;SDS011;1513;47.650;10.720;2023-06-19T03:36:01;12.17;;;10.10;;
3006;SDS011;1513;47.650;10.720;2023-06-19T03:38:44;12.77;;;9.77;;
3006;SDS011;1513;47.650;10.720;2023-06-19T03:41:13;11.70;;;9.40;;
3006;SDS011;1513;47.650;10.720;2023-06-19T03:43:40;13.30;;;9.10;;
3006;SDS011;1513;47.650;10.720;2023-06-19T03:46:07;13.20;;;9.87;;
3006;SDS011;1513;47.650;10.720;2023-06-19T03:48:34;12.70;;;8.23;;
3006;SDS011;1513;47.650;10.720;2023-06-19T03:51:00;11.93;;;9.70;;
3006;SDS011;1513;47.650;10.720;2023-06-19T03:53:27;15.00;;;10.70;;
3006;SDS011;1513;47.650;10.720;2023-06-19T03:55:53;14.17;;;10.17;;
3006;SDS011;1513;47.650;10.720;2023-06-19T03:58:19;10.70;;;9.53;;
3006;SDS011;1513;47.650;10.720;2023-06-19T04:00:46;11.37;;;9.20;;
3006;SDS011;1513;47.650;10.720;2023-06-19T04:03:12;10.83;;;9.23;;
3006;SDS011;1513;47.650;10.720;2023-06-19T04:05:38;13.80;;;9.90;;
3006;SDS011;1513;47.650;10.720;2023-06-19T04:08:07;12.23;;;9.60;;
3006;SDS011;1513;47.650;10.720;2023-06-19T04:10:33;13.53;;;8.83;;
3006;SDS011;1513;47.650;10.720;2023-06-19T04:12:59;11.90;;;9.43;;
3006;SDS011;1513;47.650;10.720;2023-06-19T04:15:26;11.50;;;9.07;;
3006;SDS011;1513;47.650;10.720;2023-06-19T04:17:52;9.13;;;7.93;;
3006;SDS011;1513;47.650;10.720;2023-06-19T04:20:18;10.10;;;8.27;;
3006;SDS011;1513;47.650;10.720;2023-06-19T04:22:46;10.13;;;9.00;;
3006;SDS011;1513;47.650;10.720;2023-06-19T04:25:12;12.80;;;9.10;;
3006;SDS011;1513;47.650;10.720;2023-06-19T04:27:39;13.53;;;9.87;;
3006;SDS011;1513;47.650;10.720;2023-06-19T04:30:05;10.07;;;8.50;;
3006;SDS011;1513;47.650;10.720;2023-06-19T04:32:32;11.50;;;9.30;;
3006;SDS011;1513;47.650;10.720;2023-06-19T04:35:09;14.97;;;10.10;;
3006;SDS011;1513;47.650;10.720;2023-06-19T04:37:35;11.37;;;9.20;;
3006;SDS011;1513;47.650;10.720;2023-06-19T04:40:02;12.63;;;9.67;;
3006;SDS011;1513;47.650;10.720;2023-06-19T04:42:33;11.93;;;9.70;;
3006;SDS011;1513;47.650;10.720;2023-06-19T04:44:59;12.10;;;9.17;;
3006;SDS011;1513;47.650;10.720;2023-06-19T04:47:25;15.13;;;10.17;;
3006;SDS011;1513;47.650;10.720;2023-06-19T04:49:51;11.63;;;9.77;;
3006;SDS011;1513;47.650;10.720;2023-06-19T04:52:18;10.60;;;9.03;;
3006;SDS011;1513;47.650;10.720;2023-06-19T04:54:44;18.13;;;9.10;;
3006;SDS011;1513;47.650;10.720;2023-06-19T04:57:13;11.47;;;9.63;;
3006;SDS011;1513;47.650;10.720;2023-06-19T04:59:41;15.43;;;9.03;;
3006;SDS011;1513;47.650;10.720;2023-06-19T05:02:09;13.67;;;9.40;;
3006;SDS011;1513;47.650;10.720;2023-06-19T05:04:36;9.50;;;8.50;;
3006;SDS011;1513;47.650;10.720;2023-06-19T05:07:02;10.40;;;9.03;;
3006;SDS011;1513;47.650;10.720;2023-06-19T05:09:29;9.20;;;8.27;;
3006;SDS011;1513;47.650;10.720;2023-06-19T05:11:56;9.50;;;8.50;;
3006;SDS011;1513;47.650;10.720;2023-06-19T05:14:23;12.17;;;9.20;;
3006;SDS011;1513;47.650;10.720;2023-06-19T05:16:49;10.47;;;9.30;;
3006;SDS011;1513;47.650;10.720;2023-06-19T05:19:15;10.70;;;9.47;;
3006;SDS011;1513;47.650;10.720;2023-06-19T05:21:42;12.47;;;10.90;;
3006;SDS011;1513;47.650;10.720;2023-06-19T05:24:08;12.53;;;9.73;;
3006;SDS011;1513;47.650;10.720;2023-06-19T05:26:34;10.30;;;9.30;;
3006;SDS011;1513;47.650;10.720;2023-06-19T05:29:01;10.43;;;9.20;;
3006;SDS011;1513;47.650;10.720;2023-06-19T05:31:27;10.40;;;9.13;;
3006;SDS011;1513;47.650;10.720;2023-06-19T05:33:53;12.33;;;9.27;;
3006;SDS011;1513;47.650;10.720;2023-06-19T05:36:19;12.17;;;9.63;;
3006;SDS011;1513;47.650;10.720;2023-06-19T05:38:46;12.93;;;9.30;;
3006;SDS011;1513;47.650;10.720;2023-06-19T05:41:13;11.70;;;9.30;;
3006;SDS011;1513;47.650;10.720;2023-06-19T05:43:41;12.90;;;10.60;;
3006;SDS011;1513;47.650;10.720;2023-06-19T05:46:08;15.67;;;9.83;;
3006;SDS011;1513;47.650;10.720;2023-06-19T05:48:34;14.33;;;10.20;;
3006;SDS011;1513;47.650;10.720;2023-06-19T05:51:00;12.97;;;9.83;;
3006;SDS011;1513;47.650;10.720;2023-06-19T05:53:27;13.03;;;10.20;;
3006;SDS011;1513;47.650;10.720;2023-06-19T05:55:53;10.63;;;9.50;;
3006;SDS011;1513;47.650;10.720;2023-06-19T05:58:19;12.00;;;9.40;;
3006;SDS011;1513;47.650;10.720;2023-06-19T06:00:46;12.73;;;10.47;;
3006;SDS011;1513;47.650;10.720;2023-06-19T06:03:12;12.27;;;10.37;;
3006;SDS011;1513;47.650;10.720;2023-06-19T06:05:39;17.20;;;10.00;;
3006;SDS011;1513;47.650;10.720;2023-06-19T06:08:05;13.23;;;8.30;;
3006;SDS011;1513;47.650;10.720;2023-06-19T06:10:32;10.83;;;9.50;;
3006;SDS011;1513;47.650;10.720;2023-06-19T06:12:59;10.67;;;9.57;;
3006;SDS011;1513;47.650;10.720;2023-06-19T06:15:25;13.83;;;8.90;;
3006;SDS011;1513;47.650;10.720;2023-06-19T06:17:51;11.37;;;9.97;;
3006;SDS011;1513;47.650;10.720;2023-06-19T06:20:18;13.40;;;10.20;;
3006;SDS011;1513;47.650;10.720;2023-06-19T06:22:44;13.93;;;9.93;;
3006;SDS011;1513;47.650;10.720;2023-06-19T06:25:10;11.07;;;8.90;;
3006;SDS011;1513;47.650;10.720;2023-06-19T06:27:37;10.90;;;9.80;;
3006;SDS011;1513;47.650;10.720;2023-06-19T06:30:03;15.23;;;9.70;;
3006;SDS011;1513;47.650;10.720;2023-06-19T06:32:30;15.50;;;10.00;;
3006;SDS011;1513;47.650;10.720;2023-06-19T06:34:56;12.40;;;9.80;;
3006;SDS011;1513;47.650;10.720;2023-06-19T06:37:24;10.33;;;9.23;;
3006;SDS011;1513;47.650;10.720;2023-06-19T06:39:50;9.70;;;8.70;;
3006;SDS011;1513;47.650;10.720;2023-06-19T06:42:17;9.73;;;8.70;;
3006;SDS011;1513;47.650;10.720;2023-06-19T06:44:44;10.63;;;9.40;;
3006;SDS011;1513;47.650;10.720;2023-06-19T06:47:10;9.63;;;8.13;;
3006;SDS011;1513;47.650;10.720;2023-06-19T06:49:37;9.00;;;8.20;;
3006;SDS011;1513;47.650;10.720;2023-06-19T06:52:03;8.83;;;7.93;;
3006;SDS011;1513;47.650;10.720;2023-06-19T06:54:30;9.07;;;8.17;;
3006;SDS011;1513;47.650;10.720;2023-06-19T06:56:56;12.10;;;8.40;;
3006;SDS011;1513;47.650;10.720;2023-06-19T06:59:25;9.10;;;8.17;;
3006;SDS011;1513;47.650;10.720;2023-06-19T07:01:52;8.07;;;7.27;;
3006;SDS011;1513;47.650;10.720;2023-06-19T07:04:19;8.10;;;7.40;;
3006;SDS011;1513;47.650;10.720;2023-06-19T07:06:46;11.67;;;7.63;;
3006;SDS011;1513;47.650;10.720;2023-06-19T07:09:12;8.57;;;7.37;;
3006;SDS011;1513;47.650;10.720;2023-06-19T07:11:40;10.80;;;7.43;;
3006;SDS011;1513;47.650;10.720;2023-06-19T07:14:06;7.50;;;6.90;;
3006;SDS011;1513;47.650;10.720;2023-06-19T07:16:33;7.18;;;6.50;;
3006;SDS011;1513;47.650;10.720;2023-06-19T07:18:59;6.82;;;6.32;;
3006;SDS011;1513;47.650;10.720;2023-06-19T07:21:25;7.25;;;6.50;;
3006;SDS011;1513;47.650;10.720;2023-06-19T07:23:53;9.35;;;6.72;;
3006;SDS011;1513;47.650;10.720;2023-06-19T07:26:20;6.20;;;5.70;;
3006;SDS011;1513;47.650;10.720;2023-06-19T07:28:46;9.30;;;6.40;;
3006;SDS011;1513;47.650;10.720;2023-06-19T07:31:13;6.30;;;5.80;;
3006;SDS011;1513;47.650;10.720;2023-06-19T07:33:39;9.07;;;5.63;;
3006;SDS011;1513;47.650;10.720;2023-06-19T07:36:05;8.35;;;5.68;;
3006;SDS011;1513;47.650;10.720;2023-06-19T07:38:32;6.50;;;5.70;;
3006;SDS011;1513;47.650;10.720;2023-06-19T07:40:58;7.05;;;6.35;;
3006;SDS011;1513;47.650;10.720;2023-06-19T07:43:24;7.03;;;5.38;;
3006;SDS011;1513;47.650;10.720;2023-06-19T07:45:50;6.15;;;5.50;;
3006;SDS011;1513;47.650;10.720;2023-06-19T07:48:17;9.18;;;5.57;;
3006;SDS011;1513;47.650;10.720;2023-06-19T07:50:43;6.30;;;5.70;;
3006;SDS011;1513;47.650;10.720;2023-06-19T07:53:11;6.45;;;5.95;;
3006;SDS011;1513;47.650;10.720;2023-06-19T07:55:37;5.95;;;5.55;;
3006;SDS011;1513;47.650;10.720;2023-06-19T07:58:03;6.40;;;6.00;;
3006;SDS011;1513;47.650;10.720;2023-06-19T08:00:30;9.73;;;5.40;;
3006;SDS011;1513;47.650;10.720;2023-06-19T08:02:56;7.00;;;6.50;;
3006;SDS011;1513;47.650;10.720;2023-06-19T08:05:22;6.90;;;6.30;;
3006;SDS011;1513;47.650;10.720;2023-06-19T08:07:48;6.90;;;6.40;;
3006;SDS011;1513;47.650;10.720;2023-06-19T08:10:15;6.70;;;6.20;;
3006;SDS011;1513;47.650;10.720;2023-06-19T08:12:41;6.63;;;6.13;;
3006;SDS011;1513;47.650;10.720;2023-06-19T08:15:09;6.07;;;5.50;;
3006;SDS011;1513;47.650;10.720;2023-06-19T08:17:36;7.03;;;6.30;;
3006;SDS011;1513;47.650;10.720;2023-06-19T08:20:02;6.75;;;6.25;;
3006;SDS011;1513;47.650;10.720;2023-06-19T08:22:30;8.07;;;6.65;;
3006;SDS011;1513;47.650;10.720;2023-06-19T08:24:56;9.30;;;6.50;;
3006;SDS011;1513;47.650;10.720;2023-06-19T08:27:23;6.38;;;5.78;;
3006;SDS011;1513;47.650;10.720;2023-06-19T08:29:49;6.18;;;5.68;;
3006;SDS011;1513;47.650;10.720;2023-06-19T08:32:16;6.95;;;6.35;;
3006;SDS011;1513;47.650;10.720;2023-06-19T08:34:42;6.78;;;6.10;;
3006;SDS011;1513;47.650;10.720;2023-06-19T08:37:08;7.53;;;6.65;;
3006;SDS011;1513;47.650;10.720;2023-06-19T08:39:35;6.67;;;6.17;;
3006;SDS011;1513;47.650;10.720;2023-06-19T08:42:03;10.50;;;6.17;;
3006;SDS011;1513;47.650;10.720;2023-06-19T08:44:33;7.53;;;6.60;;
3006;SDS011;1513;47.650;10.720;2023-06-19T08:47:04;7.23;;;6.53;;
3006;SDS011;1513;47.650;10.720;2023-06-19T08:49:31;7.00;;;6.40;;
3006;SDS011;1513;47.650;10.720;2023-06-19T08:51:59;6.93;;;6.23;;
3006;SDS011;1513;47.650;10.720;2023-06-19T08:54:26;7.43;;;6.47;;
3006;SDS011;1513;47.650;10.720;2023-06-19T08:56:52;7.60;;;6.90;;
3006;SDS011;1513;47.650;10.720;2023-06-19T08:59:19;7.60;;;6.87;;
3006;SDS011;1513;47.650;10.720;2023-06-19T09:01:47;7.90;;;7.20;;
3006;SDS011;1513;47.650;10.720;2023-06-19T09:04:19;7.37;;;6.70;;
3006;SDS011;1513;47.650;10.720;2023-06-19T09:09:21;7.10;;;6.40;;
3006;SDS011;1513;47.650;10.720;2023-06-19T09:12:02;7.37;;;6.73;;
3006;SDS011;1513;47.650;10.720;2023-06-19T09:14:42;7.00;;;6.40;;
3006;SDS011;1513;47.650;10.720;2023-06-19T09:17:13;7.70;;;7.00;;
3006;SDS011;1513;47.650;10.720;2023-06-19T09:19:47;7.67;;;6.87;;
3006;SDS011;1513;47.650;10.720;2023-06-19T09:22:15;7.33;;;6.70;;
3006;SDS011;1513;47.650;10.720;2023-06-19T09:24:45;8.10;;;7.33;;
3006;SDS011;1513;47.650;10.720;2023-06-19T09:27:16;9.10;;;7.20;;
3006;SDS011;1513;47.650;10.720;2023-06-19T09:29:44;8.53;;;7.63;;
3006;SDS011;1513;47.650;10.720;2023-06-19T09:32:15;8.57;;;7.70;;
3006;SDS011;1513;47.650;10.720;2023-06-19T09:34:41;8.50;;;7.30;;
3006;SDS011;1513;47.650;10.720;2023-06-19T09:37:08;8.03;;;7.27;;
3006;SDS011;1513;47.650;10.720;2023-06-19T09:39:38;9.67;;;7.20;;
3006;SDS011;1513;47.650;10.720;2023-06-19T09:42:09;7.80;;;7.00;;
3006;SDS011;1513;47.650;10.720;2023-06-19T09:44:41;8.00;;;7.30;;
3006;SDS011;1513;47.650;10.720;2023-06-19T09:47:12;7.60;;;6.87;;
3006;SDS011;1513;47.650;10.720;2023-06-19T09:49:49;8.13;;;7.33;;
3006;SDS011;1513;47.650;10.720;2023-06-19T09:52:20;7.50;;;6.80;;
3006;SDS011;1513;47.650;10.720;2023-06-19T09:54:54;15.90;;;8.03;;
3006;SDS011;1513;47.650;10.720;2023-06-19T09:57:23;9.20;;;7.97;;
3006;SDS011;1513;47.650;10.720;2023-06-19T09:59:50;8.33;;;7.53;;
3006;SDS011;1513;47.650;10.720;2023-06-19T10:02:19;8.43;;;7.63;;
3006;SDS011;1513;47.650;10.720;2023-06-19T10:04:48;8.53;;;7.63;;
3006;SDS011;1513;47.650;10.720;2023-06-19T10:07:21;7.33;;;6.73;;
3006;SDS011;1513;47.650;10.720;2023-06-19T10:10:04;8.20;;;7.03;;
3006;SDS011;1513;47.650;10.720;2023-06-19T10:12:39;9.50;;;8.60;;
3006;SDS011;1513;47.650;10.720;2023-06-19T10:15:28;8.40;;;7.63;;
3006;SDS011;1513;47.650;10.720;2023-06-19T10:18:01;10.23;;;8.07;;
3006;SDS011;1513;47.650;10.720;2023-06-19T10:20:29;8.27;;;7.57;;
3006;SDS011;1513;47.650;10.720;2023-06-19T10:23:01;9.83;;;7.77;;
3006;SDS011;1513;47.650;10.720;2023-06-19T10:25:28;9.50;;;7.20;;
3006;SDS011;1513;47.650;10.720;2023-06-19T10:27:57;7.47;;;6.40;;
3006;SDS011;1513;47.650;10.720;2023-06-19T10:30:23;7.40;;;6.73;;
3006;SDS011;1513;47.650;10.720;2023-06-19T10:32:50;7.80;;;7.10;;
3006;SDS011;1513;47.650;10.720;2023-06-19T10:35:17;8.80;;;7.60;;
3006;SDS011;1513;47.650;10.720;2023-06-19T10:37:46;7.43;;;6.73;;
3006;SDS011;1513;47.650;10.720;2023-06-19T10:40:13;7.63;;;7.00;;
3006;SDS011;1513;47.650;10.720;2023-06-19T10:42:40;7.57;;;6.87;;
3006;SDS011;1513;47.650;10.720;2023-06-19T10:45:08;6.30;;;5.80;;
3006;SDS011;1513;47.650;10.720;2023-06-19T10:47:35;7.40;;;6.60;;
3006;SDS011;1513;47.650;10.720;2023-06-19T10:50:04;7.23;;;6.63;;
3006;SDS011;1513;47.650;10.720;2023-06-19T10:52:34;7.40;;;6.70;;
3006;SDS011;1513;47.650;10.720;2023-06-19T10:55:01;7.10;;;6.50;;
3006;SDS011;1513;47.650;10.720;2023-06-19T10:57:30;6.83;;;6.27;;
3006;SDS011;1513;47.650;10.720;2023-06-19T10:59:56;6.63;;;6.10;;
3006;SDS011;1513;47.650;10.720;2023-06-19T11:02:23;7.33;;;6.67;;
3006;SDS011;1513;47.650;10.720;2023-06-19T11:04:54;7.13;;;6.53;;
3006;SDS011;1513;47.650;10.720;2023-06-19T11:07:21;7.67;;;6.93;;
3006;SDS011;1513;47.650;10.720;2023-06-19T11:09:51;8.50;;;7.70;;
3006;SDS011;1513;47.650;10.720;2023-06-19T11:12:20;8.07;;;7.37;;
3006;SDS011;1513;47.650;10.720;2023-06-19T11:14:50;7.47;;;6.87;;
3006;SDS011;1513;47.650;10.720;2023-06-19T11:17:16;8.23;;;6.80;;
3006;SDS011;1513;47.650;10.720;2023-06-19T11:19:45;7.90;;;7.20;;
3006;SDS011;1513;47.650;10.720;2023-06-19T11:22:12;8.00;;;6.43;;
3006;SDS011;1513;47.650;10.720;2023-06-19T11:24:45;8.23;;;7.43;;
3006;SDS011;1513;47.650;10.720;2023-06-19T11:27:20;8.43;;;7.63;;
3006;SDS011;1513;47.650;10.720;2023-06-19T11:29:55;7.53;;;6.80;;
3006;SDS011;1513;47.650;10.720;2023-06-19T11:32:23;7.67;;;6.87;;
3006;SDS011;1513;47.650;10.720;2023-06-19T11:34:57;7.70;;;7.00;;
3006;SDS011;1513;47.650;10.720;2023-06-19T11:37:29;7.83;;;7.20;;
3006;SDS011;1513;47.650;10.720;2023-06-19T11:39:56;6.30;;;5.80;;
3006;SDS011;1513;47.650;10.720;2023-06-19T11:42:23;6.10;;;5.60;;
3006;SDS011;1513;47.650;10.720;2023-06-19T11:44:54;5.57;;;5.17;;
3006;SDS011;1513;47.650;10.720;2023-06-19T11:47:21;7.47;;;6.77;;
3006;SDS011;1513;47.650;10.720;2023-06-19T11:49:48;5.00;;;4.50;;
3006;SDS011;1513;47.650;10.720;2023-06-19T11:52:15;4.50;;;4.10;;
3006;SDS011;1513;47.650;10.720;2023-06-19T11:54:42;4.80;;;4.40;;
3006;SDS011;1513;47.650;10.720;2023-06-19T11:57:09;4.20;;;3.70;;
3006;SDS011;1513;47.650;10.720;2023-06-19T11:59:39;5.13;;;4.73;;
3006;SDS011;1513;47.650;10.720;2023-06-19T12:02:05;4.80;;;4.40;;
3006;SDS011;1513;47.650;10.720;2023-06-19T12:04:32;4.30;;;4.00;;
3006;SDS011;1513;47.650;10.720;2023-06-19T12:06:59;5.40;;;4.90;;
3006;SDS011;1513;47.650;10.720;2023-06-19T12:09:25;6.10;;;4.60;;
3006;SDS011;1513;47.650;10.720;2023-06-19T12:11:53;7.43;;;4.77;;
3006;SDS011;1513;47.650;10.720;2023-06-19T12:14:19;5.43;;;5.03;;
3006;SDS011;1513;47.650;10.720;2023-06-19T12:16:47;5.30;;;4.80;;
3006;SDS011;1513;47.650;10.720;2023-06-19T12:19:14;5.30;;;4.90;;
3006;SDS011;1513;47.650;10.720;2023-06-19T12:21:40;6.27;;;5.67;;
3006;SDS011;1513;47.650;10.720;2023-06-19T12:24:06;5.13;;;4.73;;
3006;SDS011;1513;47.650;10.720;2023-06-19T12:26:35;5.60;;;5.10;;
3006;SDS011;1513;47.650;10.720;2023-06-19T12:29:05;5.30;;;4.90;;
3006;SDS011;1513;47.650;10.720;2023-06-19T12:31:32;5.73;;;5.23;;
3006;SDS011;1513;47.650;10.720;2023-06-19T12:33:59;5.73;;;5.23;;
3006;SDS011;1513;47.650;10.720;2023-06-19T12:36:28;7.77;;;4.90;;
3006;SDS011;1513;47.650;10.720;2023-06-19T12:38:58;6.10;;;5.60;;
3006;SDS011;1513;47.650;10.720;2023-06-19T12:41:25;5.90;;;5.40;;
3006;SDS011;1513;47.650;10.720;2023-06-19T12:43:52;6.37;;;5.70;;
3006;SDS011;1513;47.650;10.720;2023-06-19T12:46:18;6.17;;;5.67;;
3006;SDS011;1513;47.650;10.720;2023-06-19T12:48:44;6.23;;;5.63;;
3006;SDS011;1513;47.650;10.720;2023-06-19T12:51:16;6.23;;;5.70;;
3006;SDS011;1513;47.650;10.720;2023-06-19T12:53:43;7.77;;;5.83;;
3006;SDS011;1513;47.650;10.720;2023-06-19T12:56:10;8.80;;;6.53;;
3006;SDS011;1513;47.650;10.720;2023-06-19T12:58:36;6.33;;;5.67;;
3006;SDS011;1513;47.650;10.720;2023-06-19T13:01:02;5.53;;;5.03;;
3006;SDS011;1513;47.650;10.720;2023-06-19T13:03:29;7.50;;;6.83;;
3006;SDS011;1513;47.650;10.720;2023-06-19T13:05:55;8.00;;;7.30;;
3006;SDS011;1513;47.650;10.720;2023-06-19T13:08:21;8.47;;;7.67;;
3006;SDS011;1513;47.650;10.720;2023-06-19T13:10:48;8.30;;;7.50;;
3006;SDS011;1513;47.650;10.720;2023-06-19T13:13:14;8.70;;;7.87;;
3006;SDS011;1513;47.650;10.720;2023-06-19T13:15:40;10.87;;;7.43;;
3006;SDS011;1513;47.650;10.720;2023-06-19T13:18:07;8.37;;;7.43;;
3006;SDS011;1513;47.650;10.720;2023-06-19T13:20:33;7.83;;;7.13;;
3006;SDS011;1513;47.650;10.720;2023-06-19T13:22:59;8.33;;;7.47;;
3006;SDS011;1513;47.650;10.720;2023-06-19T13:25:25;10.40;;;7.83;;
3006;SDS011;1513;47.650;10.720;2023-06-19T13:27:52;9.07;;;7.60;;
3006;SDS011;1513;47.650;10.720;2023-06-19T13:30:18;8.40;;;7.50;;
3006;SDS011;1513;47.650;10.720;2023-06-19T13:32:44;7.87;;;7.17;;
3006;SDS011;1513;47.650;10.720;2023-06-19T13:35:10;9.40;;;7.10;;
3006;SDS011;1513;47.650;10.720;2023-06-19T13:37:37;7.97;;;7.20;;
3006;SDS011;1513;47.650;10.720;2023-06-19T13:40:06;8.53;;;7.73;;
3006;SDS011;1513;47.650;10.720;2023-06-19T13:42:33;7.77;;;7.07;;
3006;SDS011;1513;47.650;10.720;2023-06-19T13:45:04;8.50;;;7.67;;
3006;SDS011;1513;47.650;10.720;2023-06-19T13:47:30;7.63;;;6.93;;
3006;SDS011;1513;47.650;10.720;2023-06-19T13:49:57;7.77;;;6.90;;
3006;SDS011;1513;47.650;10.720;2023-06-19T13:52:23;9.60;;;8.57;;
3006;SDS011;1513;47.650;10.720;2023-06-19T13:54:49;8.03;;;7.23;;
3006;SDS011;1513;47.650;10.720;2023-06-19T13:57:16;9.30;;;7.60;;
3006;SDS011;1513;47.650;10.720;2023-06-19T13:59:42;9.10;;;7.90;;
3006;SDS011;1513;47.650;10.720;2023-06-19T14:02:08;9.10;;;7.70;;
3006;SDS011;1513;47.650;10.720;2023-06-19T14:04:35;8.37;;;7.50;;
3006;SDS011;1513;47.650;10.720;2023-06-19T14:07:02;8.50;;;7.80;;
3006;SDS011;1513;47.650;10.720;2023-06-19T14:09:28;11.30;;;8.13;;
3006;SDS011;1513;47.650;10.720;2023-06-19T14:11:55;8.97;;;7.80;;
3006;SDS011;1513;47.650;10.720;2023-06-19T14:14:21;9.30;;;7.90;;
3006;SDS011;1513;47.650;10.720;2023-06-19T14:16:48;8.37;;;7.57;;
3006;SDS011;1513;47.650;10.720;2023-06-19T14:19:14;8.23;;;7.50;;
3006;SDS011;1513;47.650;10.720;2023-06-19T14:21:40;8.43;;;7.67;;
3006;SDS011;1513;47.650;10.720;2023-06-19T14:24:07;9.13;;;6.90;;
3006;SDS011;1513;47.650;10.720;2023-06-19T14:26:33;8.10;;;7.40;;
3006;SDS011;1513;47.650;10.720;2023-06-19T14:29:00;7.57;;;6.97;;
3006;SDS011;1513;47.650;10.720;2023-06-19T14:31:26;10.47;;;7.60;;
3006;SDS011;1513;47.650;10.720;2023-06-19T14:33:52;8.47;;;7.77;;
3006;SDS011;1513;47.650;10.720;2023-06-19T14:36:19;8.10;;;7.03;;
3006;SDS011;1513;47.650;10.720;2023-06-19T14:38:45;7.90;;;7.20;;
3006;SDS011;1513;47.650;10.720;2023-06-19T14:41:11;8.30;;;7.60;;
3006;SDS011;1513;47.650;10.720;2023-06-19T14:43:38;8.47;;;7.67;;
3006;SDS011;1513;47.650;10.720;2023-06-19T14:46:05;10.50;;;8.20;;
3006;SDS011;1513;47.650;10.720;2023-06-19T14:48:31;8.30;;;7.50;;
3006;SDS011;1513;47.650;10.720;2023-06-19T14:50:57;8.60;;;7.80;;
3006;SDS011;1513;47.650;10.720;2023-06-19T14:53:24;11.03;;;8.03;;
3006;SDS011;1513;47.650;10.720;2023-06-19T14:55:50;9.27;;;8.37;;
3006;SDS011;1513;47.650;10.720;2023-06-19T14:58:16;8.40;;;7.60;;
3006;SDS011;1513;47.650;10.720;2023-06-19T15:00:42;8.77;;;7.87;;
3006;SDS011;1513;47.650;10.720;2023-06-19T15:03:09;10.53;;;8.37;;